sensor_id;sensor_type;location;lat;lon;timestamp;P1;durP1;ratioP1;P2;durP2;ratioP2
21087;SDS011;10702;51.516;9.944;2022-12-07T00:00:47;20.47;;;11.33;;
21087;SDS011;10702;51.516;9.944;2022-12-07T00:03:14;18.37;;;10.43;;
21087;SDS011;10702;51.516;9.944;2022-12-07T00:05:43;18.77;;;10.33;;
21087;SDS011;10702;51.516;9.944;2022-12-07T00:08:10;19.03;;;10.60;;
21087;SDS011;10702;51.516;9.944;2022-12-07T00:10:38;18.43;;;10.30;;
21087;SDS011;10702;51.516;9.944;2022-12-07T00:13:05;18.13;;;10.63;;
21087;SDS011;10702;51.516;9.944;2022-12-07T00:15:33;16.13;;;9.67;;
21087;SDS011;10702;51.516;9.944;2022-12-07T00:18:00;17.00;;;10.13;;
21087;SDS011;10702;51.516;9.944;2022-12-07T00:20:29;18.37;;;10.23;;
21087;SDS011;10702;51.516;9.944;2022-12-07T00:22:58;16.00;;;9.37;;
21087;SDS011;10702;51.516;9.944;2022-12-07T00:25:26;18.97;;;10.63;;
21087;SDS011;10702;51.516;9.944;2022-12-07T00:27:53;17.10;;;9.37;;
21087;SDS011;10702;51.516;9.944;2022-12-07T00:30:22;17.47;;;10.00;;
21087;SDS011;10702;51.516;9.944;2022-12-07T00:32:50;19.83;;;10.13;;
21087;SDS011;10702;51.516;9.944;2022-12-07T00:35:17;18.80;;;9.17;;
21087;SDS011;10702;51.516;9.944;2022-12-07T00:37:45;18.37;;;9.63;;
21087;SDS011;10702;51.516;9.944;2022-12-07T00:40:13;17.43;;;9.73;;
21087;SDS011;10702;51.516;9.944;2022-12-07T00:42:41;16.60;;;9.23;;
21087;SDS011;10702;51.516;9.944;2022-12-07T00:45:08;19.00;;;9.90;;
21087;SDS011;10702;51.516;9.944;2022-12-07T00:47:36;17.47;;;9.17;;
21087;SDS011;10702;51.516;9.944;2022-12-07T00:50:04;16.50;;;9.33;;
21087;SDS011;10702;51.516;9.944;2022-12-07T00:52:31;19.27;;;10.23;;
21087;SDS011;10702;51.516;9.944;2022-12-07T00:54:59;18.10;;;9.30;;
21087;SDS011;10702;51.516;9.944;2022-12-07T00:57:28;18.20;;;11.27;;
21087;SDS011;10702;51.516;9.944;2022-12-07T00:59:57;17.33;;;9.50;;
21087;SDS011;10702;51.516;9.944;2022-12-07T01:02:26;17.27;;;9.47;;
21087;SDS011;10702;51.516;9.944;2022-12-07T01:04:54;17.43;;;9.27;;
21087;SDS011;10702;51.516;9.944;2022-12-07T01:07:21;17.37;;;9.07;;
21087;SDS011;10702;51.516;9.944;2022-12-07T01:09:49;16.83;;;9.00;;
21087;SDS011;10702;51.516;9.944;2022-12-07T01:12:16;17.27;;;9.60;;
21087;SDS011;10702;51.516;9.944;2022-12-07T01:14:45;21.27;;;10.23;;
21087;SDS011;10702;51.516;9.944;2022-12-07T01:17:12;15.37;;;9.03;;
21087;SDS011;10702;51.516;9.944;2022-12-07T01:19:40;16.10;;;9.13;;
21087;SDS011;10702;51.516;9.944;2022-12-07T01:22:07;20.17;;;10.17;;
21087;SDS011;10702;51.516;9.944;2022-12-07T01:24:35;22.87;;;11.60;;
21087;SDS011;10702;51.516;9.944;2022-12-07T01:27:02;20.03;;;10.27;;
21087;SDS011;10702;51.516;9.944;2022-12-07T01:29:30;22.40;;;10.73;;
21087;SDS011;10702;51.516;9.944;2022-12-07T01:31:58;20.40;;;10.87;;
21087;SDS011;10702;51.516;9.944;2022-12-07T01:34:26;18.73;;;10.47;;
21087;SDS011;10702;51.516;9.944;2022-12-07T01:36:53;18.77;;;9.67;;
21087;SDS011;10702;51.516;9.944;2022-12-07T01:39:21;19.23;;;10.27;;
21087;SDS011;10702;51.516;9.944;2022-12-07T01:41:48;19.17;;;10.23;;
21087;SDS011;10702;51.516;9.944;2022-12-07T01:44:17;19.53;;;10.80;;
21087;SDS011;10702;51.516;9.944;2022-12-07T01:46:46;22.63;;;12.07;;
21087;SDS011;10702;51.516;9.944;2022-12-07T01:49:27;19.83;;;10.80;;
21087;SDS011;10702;51.516;9.944;2022-12-07T01:51:57;20.20;;;11.33;;
21087;SDS011;10702;51.516;9.944;2022-12-07T01:54:25;22.00;;;12.07;;
21087;SDS011;10702;51.516;9.944;2022-12-07T01:56:53;23.77;;;11.80;;
21087;SDS011;10702;51.516;9.944;2022-12-07T01:59:22;21.17;;;10.93;;
21087;SDS011;10702;51.516;9.944;2022-12-07T02:01:51;21.80;;;11.80;;
21087;SDS011;10702;51.516;9.944;2022-12-07T02:04:20;21.23;;;11.73;;
21087;SDS011;10702;51.516;9.944;2022-12-07T02:06:49;20.53;;;10.40;;
21087;SDS011;10702;51.516;9.944;2022-12-07T02:09:17;16.97;;;9.10;;
21087;SDS011;10702;51.516;9.944;2022-12-07T02:11:45;17.33;;;9.67;;
21087;SDS011;10702;51.516;9.944;2022-12-07T02:14:12;18.90;;;11.03;;
21087;SDS011;10702;51.516;9.944;2022-12-07T02:16:43;18.57;;;10.27;;
21087;SDS011;10702;51.516;9.944;2022-12-07T02:19:21;20.83;;;11.93;;
21087;SDS011;10702;51.516;9.944;2022-12-07T02:21:55;22.07;;;11.17;;
21087;SDS011;10702;51.516;9.944;2022-12-07T02:24:31;18.70;;;10.60;;
21087;SDS011;10702;51.516;9.944;2022-12-07T02:27:07;22.13;;;12.17;;
21087;SDS011;10702;51.516;9.944;2022-12-07T02:29:40;22.73;;;11.60;;
21087;SDS011;10702;51.516;9.944;2022-12-07T02:32:11;19.93;;;10.43;;
21087;SDS011;10702;51.516;9.944;2022-12-07T02:34:43;19.60;;;10.87;;
21087;SDS011;10702;51.516;9.944;2022-12-07T02:37:14;19.83;;;10.60;;
21087;SDS011;10702;51.516;9.944;2022-12-07T02:39:46;20.70;;;10.97;;
21087;SDS011;10702;51.516;9.944;2022-12-07T02:42:15;21.50;;;11.53;;
21087;SDS011;10702;51.516;9.944;2022-12-07T02:44:46;21.57;;;11.67;;
21087;SDS011;10702;51.516;9.944;2022-12-07T02:47:14;24.90;;;11.47;;
21087;SDS011;10702;51.516;9.944;2022-12-07T02:49:43;21.27;;;11.50;;
21087;SDS011;10702;51.516;9.944;2022-12-07T02:52:10;19.93;;;10.93;;
21087;SDS011;10702;51.516;9.944;2022-12-07T02:54:38;19.63;;;11.17;;
21087;SDS011;10702;51.516;9.944;2022-12-07T02:57:13;19.07;;;10.33;;
21087;SDS011;10702;51.516;9.944;2022-12-07T02:59:48;19.90;;;10.60;;
21087;SDS011;10702;51.516;9.944;2022-12-07T03:02:17;21.00;;;10.93;;
21087;SDS011;10702;51.516;9.944;2022-12-07T03:04:50;24.13;;;10.87;;
21087;SDS011;10702;51.516;9.944;2022-12-07T03:07:21;18.07;;;10.60;;
21087;SDS011;10702;51.516;9.944;2022-12-07T03:09:53;19.03;;;11.03;;
21087;SDS011;10702;51.516;9.944;2022-12-07T03:12:24;19.70;;;10.50;;
21087;SDS011;10702;51.516;9.944;2022-12-07T03:14:58;20.17;;;10.93;;
21087;SDS011;10702;51.516;9.944;2022-12-07T03:17:27;19.50;;;10.40;;
21087;SDS011;10702;51.516;9.944;2022-12-07T03:19:58;19.40;;;11.13;;
21087;SDS011;10702;51.516;9.944;2022-12-07T03:22:28;20.23;;;11.07;;
21087;SDS011;10702;51.516;9.944;2022-12-07T03:24:57;22.97;;;12.10;;
21087;SDS011;10702;51.516;9.944;2022-12-07T03:27:26;23.57;;;11.87;;
21087;SDS011;10702;51.516;9.944;2022-12-07T03:29:58;21.13;;;11.43;;
21087;SDS011;10702;51.516;9.944;2022-12-07T03:32:28;21.37;;;11.87;;
21087;SDS011;10702;51.516;9.944;2022-12-07T03:34:59;22.13;;;11.80;;
21087;SDS011;10702;51.516;9.944;2022-12-07T03:37:29;22.40;;;12.03;;
21087;SDS011;10702;51.516;9.944;2022-12-07T03:40:02;22.10;;;11.67;;
21087;SDS011;10702;51.516;9.944;2022-12-07T03:42:31;23.90;;;11.90;;
21087;SDS011;10702;51.516;9.944;2022-12-07T03:45:01;20.70;;;11.93;;
21087;SDS011;10702;51.516;9.944;2022-12-07T03:47:29;22.00;;;11.93;;
21087;SDS011;10702;51.516;9.944;2022-12-07T03:49:59;21.30;;;11.17;;
21087;SDS011;10702;51.516;9.944;2022-12-07T03:52:30;24.60;;;12.40;;
21087;SDS011;10702;51.516;9.944;2022-12-07T03:55:00;23.03;;;12.17;;
21087;SDS011;10702;51.516;9.944;2022-12-07T03:57:29;20.77;;;11.47;;
21087;SDS011;10702;51.516;9.944;2022-12-07T03:59:58;21.13;;;11.33;;
21087;SDS011;10702;51.516;9.944;2022-12-07T04:02:28;20.67;;;10.23;;
21087;SDS011;10702;51.516;9.944;2022-12-07T04:04:56;20.50;;;10.47;;
21087;SDS011;10702;51.516;9.944;2022-12-07T04:07:23;21.87;;;11.60;;
21087;SDS011;10702;51.516;9.944;2022-12-07T04:09:51;24.57;;;12.87;;
21087;SDS011;10702;51.516;9.944;2022-12-07T04:12:20;21.30;;;11.00;;
21087;SDS011;10702;51.516;9.944;2022-12-07T04:14:48;21.00;;;11.07;;
21087;SDS011;10702;51.516;9.944;2022-12-07T04:17:15;24.07;;;12.57;;
21087;SDS011;10702;51.516;9.944;2022-12-07T04:19:45;23.33;;;12.03;;
21087;SDS011;10702;51.516;9.944;2022-12-07T04:22:12;23.60;;;12.60;;
21087;SDS011;10702;51.516;9.944;2022-12-07T04:24:39;27.43;;;12.90;;
21087;SDS011;10702;51.516;9.944;2022-12-07T04:27:08;25.40;;;12.73;;
21087;SDS011;10702;51.516;9.944;2022-12-07T04:29:36;24.83;;;12.63;;
21087;SDS011;10702;51.516;9.944;2022-12-07T04:32:04;25.73;;;13.47;;
21087;SDS011;10702;51.516;9.944;2022-12-07T04:34:31;25.70;;;13.00;;
21087;SDS011;10702;51.516;9.944;2022-12-07T04:37:00;22.70;;;12.03;;
21087;SDS011;10702;51.516;9.944;2022-12-07T04:39:28;21.67;;;10.93;;
21087;SDS011;10702;51.516;9.944;2022-12-07T04:41:56;21.43;;;11.33;;
21087;SDS011;10702;51.516;9.944;2022-12-07T04:44:24;24.50;;;13.00;;
21087;SDS011;10702;51.516;9.944;2022-12-07T04:46:52;19.80;;;10.83;;
21087;SDS011;10702;51.516;9.944;2022-12-07T04:49:20;24.27;;;12.67;;
21087;SDS011;10702;51.516;9.944;2022-12-07T04:51:48;19.73;;;11.20;;
21087;SDS011;10702;51.516;9.944;2022-12-07T04:54:17;20.03;;;10.23;;
21087;SDS011;10702;51.516;9.944;2022-12-07T04:56:44;21.53;;;10.97;;
21087;SDS011;10702;51.516;9.944;2022-12-07T04:59:12;18.33;;;9.53;;
21087;SDS011;10702;51.516;9.944;2022-12-07T05:01:40;15.73;;;9.67;;
21087;SDS011;10702;51.516;9.944;2022-12-07T05:04:08;12.47;;;7.33;;
21087;SDS011;10702;51.516;9.944;2022-12-07T05:06:35;18.87;;;10.40;;
21087;SDS011;10702;51.516;9.944;2022-12-07T05:09:03;21.70;;;11.97;;
21087;SDS011;10702;51.516;9.944;2022-12-07T05:11:32;17.30;;;9.10;;
21087;SDS011;10702;51.516;9.944;2022-12-07T05:14:06;18.23;;;10.87;;
21087;SDS011;10702;51.516;9.944;2022-12-07T05:16:34;22.20;;;11.40;;
21087;SDS011;10702;51.516;9.944;2022-12-07T05:19:01;20.23;;;9.63;;
21087;SDS011;10702;51.516;9.944;2022-12-07T05:21:29;23.30;;;11.97;;
21087;SDS011;10702;51.516;9.944;2022-12-07T05:23:57;25.60;;;13.53;;
21087;SDS011;10702;51.516;9.944;2022-12-07T05:26:24;27.17;;;12.77;;
21087;SDS011;10702;51.516;9.944;2022-12-07T05:28:54;26.63;;;13.27;;
21087;SDS011;10702;51.516;9.944;2022-12-07T05:31:22;26.00;;;12.53;;
21087;SDS011;10702;51.516;9.944;2022-12-07T05:33:51;20.97;;;10.77;;
21087;SDS011;10702;51.516;9.944;2022-12-07T05:36:19;26.83;;;12.93;;
21087;SDS011;10702;51.516;9.944;2022-12-07T05:38:46;28.20;;;13.30;;
21087;SDS011;10702;51.516;9.944;2022-12-07T05:41:14;28.97;;;13.03;;
21087;SDS011;10702;51.516;9.944;2022-12-07T05:43:57;23.00;;;11.77;;
21087;SDS011;10702;51.516;9.944;2022-12-07T05:46:25;24.83;;;12.97;;
21087;SDS011;10702;51.516;9.944;2022-12-07T05:48:52;25.93;;;12.80;;
21087;SDS011;10702;51.516;9.944;2022-12-07T05:51:21;25.87;;;11.97;;
21087;SDS011;10702;51.516;9.944;2022-12-07T05:53:48;28.30;;;13.53;;
21087;SDS011;10702;51.516;9.944;2022-12-07T05:56:16;25.03;;;12.87;;
21087;SDS011;10702;51.516;9.944;2022-12-07T05:58:43;27.13;;;12.37;;
21087;SDS011;10702;51.516;9.944;2022-12-07T06:01:29;29.20;;;13.27;;
21087;SDS011;10702;51.516;9.944;2022-12-07T06:03:57;23.60;;;11.63;;
21087;SDS011;10702;51.516;9.944;2022-12-07T06:06:24;24.63;;;12.00;;
21087;SDS011;10702;51.516;9.944;2022-12-07T06:08:52;28.97;;;12.97;;
21087;SDS011;10702;51.516;9.944;2022-12-07T06:11:19;23.83;;;12.77;;
21087;SDS011;10702;51.516;9.944;2022-12-07T06:14:04;22.77;;;10.73;;
21087;SDS011;10702;51.516;9.944;2022-12-07T06:16:33;25.00;;;11.77;;
21087;SDS011;10702;51.516;9.944;2022-12-07T06:19:01;25.93;;;11.07;;
21087;SDS011;10702;51.516;9.944;2022-12-07T06:21:28;21.53;;;10.77;;
21087;SDS011;10702;51.516;9.944;2022-12-07T06:23:56;22.00;;;10.20;;
21087;SDS011;10702;51.516;9.944;2022-12-07T06:26:23;23.33;;;10.80;;
21087;SDS011;10702;51.516;9.944;2022-12-07T06:28:51;22.53;;;11.23;;
21087;SDS011;10702;51.516;9.944;2022-12-07T06:31:18;24.80;;;12.40;;
21087;SDS011;10702;51.516;9.944;2022-12-07T06:33:47;22.07;;;11.37;;
21087;SDS011;10702;51.516;9.944;2022-12-07T06:36:15;20.83;;;10.80;;
21087;SDS011;10702;51.516;9.944;2022-12-07T06:38:47;24.77;;;10.53;;
21087;SDS011;10702;51.516;9.944;2022-12-07T06:41:15;22.43;;;10.97;;
21087;SDS011;10702;51.516;9.944;2022-12-07T06:43:42;24.17;;;11.13;;
21087;SDS011;10702;51.516;9.944;2022-12-07T06:46:10;21.97;;;10.70;;
21087;SDS011;10702;51.516;9.944;2022-12-07T06:48:37;18.63;;;10.93;;
21087;SDS011;10702;51.516;9.944;2022-12-07T06:51:06;21.53;;;10.27;;
21087;SDS011;10702;51.516;9.944;2022-12-07T06:53:34;21.93;;;10.60;;
21087;SDS011;10702;51.516;9.944;2022-12-07T06:56:01;23.80;;;10.27;;
21087;SDS011;10702;51.516;9.944;2022-12-07T06:58:29;20.90;;;9.40;;
21087;SDS011;10702;51.516;9.944;2022-12-07T07:00:56;22.07;;;10.07;;
21087;SDS011;10702;51.516;9.944;2022-12-07T07:03:24;20.73;;;9.13;;
21087;SDS011;10702;51.516;9.944;2022-12-07T07:05:52;19.63;;;9.53;;
21087;SDS011;10702;51.516;9.944;2022-12-07T07:08:20;16.97;;;8.20;;
21087;SDS011;10702;51.516;9.944;2022-12-07T07:10:49;15.13;;;8.50;;
21087;SDS011;10702;51.516;9.944;2022-12-07T07:13:16;15.80;;;8.13;;
21087;SDS011;10702;51.516;9.944;2022-12-07T07:15:44;19.53;;;9.10;;
21087;SDS011;10702;51.516;9.944;2022-12-07T07:18:11;18.70;;;9.63;;
21087;SDS011;10702;51.516;9.944;2022-12-07T07:20:39;16.57;;;8.30;;
21087;SDS011;10702;51.516;9.944;2022-12-07T07:23:07;15.77;;;8.70;;
21087;SDS011;10702;51.516;9.944;2022-12-07T07:25:35;18.67;;;9.40;;
21087;SDS011;10702;51.516;9.944;2022-12-07T07:28:03;21.27;;;9.10;;
21087;SDS011;10702;51.516;9.944;2022-12-07T07:30:31;17.87;;;9.50;;
21087;SDS011;10702;51.516;9.944;2022-12-07T07:32:58;17.23;;;8.77;;
21087;SDS011;10702;51.516;9.944;2022-12-07T07:35:26;17.27;;;9.20;;
21087;SDS011;10702;51.516;9.944;2022-12-07T07:37:53;19.80;;;9.83;;
21087;SDS011;10702;51.516;9.944;2022-12-07T07:40:21;19.47;;;8.90;;
21087;SDS011;10702;51.516;9.944;2022-12-07T07:42:50;21.17;;;9.70;;
21087;SDS011;10702;51.516;9.944;2022-12-07T07:45:18;22.67;;;9.67;;
21087;SDS011;10702;51.516;9.944;2022-12-07T07:47:46;25.17;;;10.47;;
21087;SDS011;10702;51.516;9.944;2022-12-07T07:50:14;22.70;;;10.07;;
21087;SDS011;10702;51.516;9.944;2022-12-07T07:52:42;18.67;;;8.50;;
21087;SDS011;10702;51.516;9.944;2022-12-07T07:55:09;25.17;;;9.37;;
21087;SDS011;10702;51.516;9.944;2022-12-07T07:57:37;23.87;;;10.77;;
21087;SDS011;10702;51.516;9.944;2022-12-07T08:00:07;20.33;;;10.20;;
21087;SDS011;10702;51.516;9.944;2022-12-07T08:02:35;19.23;;;9.27;;
21087;SDS011;10702;51.516;9.944;2022-12-07T08:05:03;17.30;;;8.53;;
21087;SDS011;10702;51.516;9.944;2022-12-07T08:07:31;16.57;;;8.90;;
21087;SDS011;10702;51.516;9.944;2022-12-07T08:09:58;21.33;;;9.00;;
21087;SDS011;10702;51.516;9.944;2022-12-07T08:12:26;16.67;;;7.77;;
21087;SDS011;10702;51.516;9.944;2022-12-07T08:14:54;16.60;;;7.93;;
21087;SDS011;10702;51.516;9.944;2022-12-07T08:17:22;14.83;;;7.30;;
21087;SDS011;10702;51.516;9.944;2022-12-07T08:19:50;17.07;;;7.43;;
21087;SDS011;10702;51.516;9.944;2022-12-07T08:22:18;16.43;;;7.47;;
21087;SDS011;10702;51.516;9.944;2022-12-07T08:24:46;13.30;;;7.20;;
21087;SDS011;10702;51.516;9.944;2022-12-07T08:27:13;14.53;;;6.53;;
21087;SDS011;10702;51.516;9.944;2022-12-07T08:29:41;16.77;;;6.80;;
21087;SDS011;10702;51.516;9.944;2022-12-07T08:32:08;14.80;;;6.20;;
21087;SDS011;10702;51.516;9.944;2022-12-07T08:34:37;15.17;;;6.20;;
21087;SDS011;10702;51.516;9.944;2022-12-07T08:37:04;15.30;;;6.10;;
21087;SDS011;10702;51.516;9.944;2022-12-07T08:39:32;15.50;;;6.70;;
21087;SDS011;10702;51.516;9.944;2022-12-07T08:41:59;15.00;;;6.33;;
21087;SDS011;10702;51.516;9.944;2022-12-07T08:44:26;10.70;;;6.37;;
21087;SDS011;10702;51.516;9.944;2022-12-07T08:46:55;11.30;;;6.20;;
21087;SDS011;10702;51.516;9.944;2022-12-07T08:49:26;11.83;;;6.70;;
21087;SDS011;10702;51.516;9.944;2022-12-07T08:51:56;19.43;;;7.00;;
21087;SDS011;10702;51.516;9.944;2022-12-07T08:54:23;10.30;;;5.90;;
21087;SDS011;10702;51.516;9.944;2022-12-07T08:56:51;11.97;;;5.40;;
21087;SDS011;10702;51.516;9.944;2022-12-07T08:59:24;13.10;;;5.87;;
21087;SDS011;10702;51.516;9.944;2022-12-07T09:01:52;15.03;;;5.67;;
21087;SDS011;10702;51.516;9.944;2022-12-07T09:04:20;11.87;;;5.77;;
21087;SDS011;10702;51.516;9.944;2022-12-07T09:06:47;9.87;;;5.53;;
21087;SDS011;10702;51.516;9.944;2022-12-07T09:09:16;15.47;;;6.17;;
21087;SDS011;10702;51.516;9.944;2022-12-07T09:11:44;13.60;;;6.80;;
21087;SDS011;10702;51.516;9.944;2022-12-07T09:14:12;10.97;;;6.10;;
21087;SDS011;10702;51.516;9.944;2022-12-07T09:16:39;16.03;;;7.37;;
21087;SDS011;10702;51.516;9.944;2022-12-07T09:19:07;13.10;;;6.53;;
21087;SDS011;10702;51.516;9.944;2022-12-07T09:21:34;13.73;;;6.60;;
21087;SDS011;10702;51.516;9.944;2022-12-07T09:24:02;19.80;;;6.70;;
21087;SDS011;10702;51.516;9.944;2022-12-07T09:26:31;13.67;;;6.83;;
21087;SDS011;10702;51.516;9.944;2022-12-07T09:28:58;14.17;;;6.60;;
21087;SDS011;10702;51.516;9.944;2022-12-07T09:31:26;16.10;;;7.00;;
21087;SDS011;10702;51.516;9.944;2022-12-07T09:33:54;14.37;;;6.73;;
21087;SDS011;10702;51.516;9.944;2022-12-07T09:36:21;13.43;;;6.27;;
21087;SDS011;10702;51.516;9.944;2022-12-07T09:38:49;12.33;;;5.70;;
21087;SDS011;10702;51.516;9.944;2022-12-07T09:41:16;14.00;;;6.40;;
21087;SDS011;10702;51.516;9.944;2022-12-07T09:43:45;12.67;;;5.60;;
21087;SDS011;10702;51.516;9.944;2022-12-07T09:46:14;14.23;;;5.97;;
21087;SDS011;10702;51.516;9.944;2022-12-07T09:48:43;11.70;;;5.67;;
21087;SDS011;10702;51.516;9.944;2022-12-07T09:51:13;12.23;;;5.10;;
21087;SDS011;10702;51.516;9.944;2022-12-07T09:53:48;11.43;;;5.13;;
21087;SDS011;10702;51.516;9.944;2022-12-07T09:56:17;12.77;;;5.73;;
21087;SDS011;10702;51.516;9.944;2022-12-07T09:58:46;11.43;;;5.73;;
21087;SDS011;10702;51.516;9.944;2022-12-07T10:01:15;12.20;;;6.03;;
21087;SDS011;10702;51.516;9.944;2022-12-07T10:03:45;11.40;;;5.40;;
21087;SDS011;10702;51.516;9.944;2022-12-07T10:06:14;12.43;;;5.33;;
21087;SDS011;10702;51.516;9.944;2022-12-07T10:08:41;10.97;;;5.13;;
21087;SDS011;10702;51.516;9.944;2022-12-07T10:11:10;15.63;;;5.27;;
21087;SDS011;10702;51.516;9.944;2022-12-07T10:13:41;9.50;;;4.87;;
21087;SDS011;10702;51.516;9.944;2022-12-07T10:16:25;10.50;;;5.53;;
21087;SDS011;10702;51.516;9.944;2022-12-07T10:18:55;10.10;;;4.70;;
21087;SDS011;10702;51.516;9.944;2022-12-07T10:21:23;9.73;;;5.13;;
21087;SDS011;10702;51.516;9.944;2022-12-07T10:24:00;8.87;;;4.57;;
21087;SDS011;10702;51.516;9.944;2022-12-07T10:26:29;8.70;;;4.60;;
21087;SDS011;10702;51.516;9.944;2022-12-07T10:28:59;7.77;;;4.20;;
21087;SDS011;10702;51.516;9.944;2022-12-07T10:31:28;9.23;;;4.60;;
21087;SDS011;10702;51.516;9.944;2022-12-07T10:33:56;7.30;;;3.90;;
21087;SDS011;10702;51.516;9.944;2022-12-07T10:36:24;7.30;;;4.27;;
21087;SDS011;10702;51.516;9.944;2022-12-07T10:38:53;8.53;;;4.40;;
21087;SDS011;10702;51.516;9.944;2022-12-07T10:41:20;8.93;;;4.00;;
21087;SDS011;10702;51.516;9.944;2022-12-07T10:43:48;8.23;;;3.93;;
21087;SDS011;10702;51.516;9.944;2022-12-07T10:49:02;8.00;;;3.80;;
21087;SDS011;10702;51.516;9.944;2022-12-07T10:51:38;7.93;;;3.80;;
21087;SDS011;10702;51.516;9.944;2022-12-07T10:54:10;7.87;;;3.93;;
21087;SDS011;10702;51.516;9.944;2022-12-07T10:59:34;7.40;;;3.93;;
21087;SDS011;10702;51.516;9.944;2022-12-07T11:02:09;7.70;;;4.10;;
21087;SDS011;10702;51.516;9.944;2022-12-07T11:04:52;8.30;;;3.40;;
21087;SDS011;10702;51.516;9.944;2022-12-07T11:07:22;8.43;;;3.93;;
21087;SDS011;10702;51.516;9.944;2022-12-07T11:10:01;10.10;;;4.10;;
21087;SDS011;10702;51.516;9.944;2022-12-07T11:12:39;6.80;;;3.70;;
21087;SDS011;10702;51.516;9.944;2022-12-07T11:15:13;9.90;;;3.57;;
21087;SDS011;10702;51.516;9.944;2022-12-07T11:17:44;7.77;;;3.27;;
21087;SDS011;10702;51.516;9.944;2022-12-07T11:20:18;5.57;;;3.03;;
21087;SDS011;10702;51.516;9.944;2022-12-07T11:22:51;10.20;;;3.17;;
21087;SDS011;10702;51.516;9.944;2022-12-07T11:25:24;5.67;;;2.90;;
21087;SDS011;10702;51.516;9.944;2022-12-07T11:28:02;6.83;;;3.27;;
21087;SDS011;10702;51.516;9.944;2022-12-07T11:30:31;10.33;;;3.90;;
21087;SDS011;10702;51.516;9.944;2022-12-07T11:33:09;8.33;;;3.40;;
21087;SDS011;10702;51.516;9.944;2022-12-07T11:35:44;5.73;;;3.10;;
21087;SDS011;10702;51.516;9.944;2022-12-07T11:38:14;7.30;;;3.70;;
21087;SDS011;10702;51.516;9.944;2022-12-07T11:40:46;6.67;;;2.83;;
21087;SDS011;10702;51.516;9.944;2022-12-07T11:43:18;9.17;;;3.30;;
21087;SDS011;10702;51.516;9.944;2022-12-07T11:45:50;8.07;;;3.00;;
21087;SDS011;10702;51.516;9.944;2022-12-07T11:48:22;10.90;;;3.30;;
21087;SDS011;10702;51.516;9.944;2022-12-07T11:50:52;5.67;;;3.13;;
21087;SDS011;10702;51.516;9.944;2022-12-07T11:53:21;5.67;;;3.07;;
21087;SDS011;10702;51.516;9.944;2022-12-07T11:55:50;6.63;;;3.47;;
21087;SDS011;10702;51.516;9.944;2022-12-07T11:58:22;9.43;;;3.97;;
21087;SDS011;10702;51.516;9.944;2022-12-07T12:00:50;8.23;;;4.23;;
21087;SDS011;10702;51.516;9.944;2022-12-07T12:03:20;7.43;;;3.20;;
21087;SDS011;10702;51.516;9.944;2022-12-07T12:05:51;8.50;;;3.70;;
21087;SDS011;10702;51.516;9.944;2022-12-07T12:08:19;6.87;;;3.30;;
21087;SDS011;10702;51.516;9.944;2022-12-07T12:11:11;5.57;;;3.00;;
21087;SDS011;10702;51.516;9.944;2022-12-07T12:13:51;9.93;;;3.43;;
21087;SDS011;10702;51.516;9.944;2022-12-07T12:16:48;6.80;;;2.80;;
21087;SDS011;10702;51.516;9.944;2022-12-07T12:19:22;10.43;;;3.93;;
21087;SDS011;10702;51.516;9.944;2022-12-07T12:21:55;7.63;;;3.20;;
21087;SDS011;10702;51.516;9.944;2022-12-07T12:24:24;5.03;;;2.60;;
21087;SDS011;10702;51.516;9.944;2022-12-07T12:26:53;6.17;;;2.77;;
21087;SDS011;10702;51.516;9.944;2022-12-07T12:29:26;5.47;;;2.70;;
21087;SDS011;10702;51.516;9.944;2022-12-07T12:32:05;3.23;;;2.30;;
21087;SDS011;10702;51.516;9.944;2022-12-07T12:34:39;5.97;;;2.60;;
21087;SDS011;10702;51.516;9.944;2022-12-07T12:42:48;8.20;;;3.43;;
21087;SDS011;10702;51.516;9.944;2022-12-07T12:45:18;6.60;;;3.37;;
21087;SDS011;10702;51.516;9.944;2022-12-07T12:50:25;9.57;;;3.63;;
21087;SDS011;10702;51.516;9.944;2022-12-07T12:52:56;9.37;;;4.17;;
21087;SDS011;10702;51.516;9.944;2022-12-07T12:58:29;5.93;;;3.10;;
21087;SDS011;10702;51.516;9.944;2022-12-07T13:03:51;7.67;;;2.80;;
21087;SDS011;10702;51.516;9.944;2022-12-07T13:06:29;5.47;;;2.60;;
21087;SDS011;10702;51.516;9.944;2022-12-07T13:08:59;6.23;;;2.70;;
21087;SDS011;10702;51.516;9.944;2022-12-07T13:11:28;8.07;;;3.90;;
21087;SDS011;10702;51.516;9.944;2022-12-07T13:16:40;6.53;;;3.10;;
21087;SDS011;10702;51.516;9.944;2022-12-07T13:21:54;10.80;;;4.60;;
21087;SDS011;10702;51.516;9.944;2022-12-07T13:24:22;8.97;;;3.37;;
21087;SDS011;10702;51.516;9.944;2022-12-07T13:26:51;17.70;;;9.90;;
21087;SDS011;10702;51.516;9.944;2022-12-07T13:29:23;6.07;;;3.10;;
21087;SDS011;10702;51.516;9.944;2022-12-07T13:31:52;7.67;;;3.47;;
21087;SDS011;10702;51.516;9.944;2022-12-07T13:34:27;15.27;;;9.20;;
21087;SDS011;10702;51.516;9.944;2022-12-07T13:36:56;9.33;;;3.53;;
21087;SDS011;10702;51.516;9.944;2022-12-07T13:39:24;8.13;;;5.17;;
21087;SDS011;10702;51.516;9.944;2022-12-07T13:41:52;8.00;;;3.13;;
21087;SDS011;10702;51.516;9.944;2022-12-07T13:44:21;7.83;;;4.03;;
21087;SDS011;10702;51.516;9.944;2022-12-07T13:46:50;12.77;;;9.00;;
21087;SDS011;10702;51.516;9.944;2022-12-07T13:49:22;7.53;;;3.53;;
21087;SDS011;10702;51.516;9.944;2022-12-07T13:51:49;12.30;;;7.20;;
21087;SDS011;10702;51.516;9.944;2022-12-07T13:54:17;7.77;;;3.60;;
21087;SDS011;10702;51.516;9.944;2022-12-07T13:56:47;7.60;;;3.20;;
21087;SDS011;10702;51.516;9.944;2022-12-07T13:59:16;8.83;;;3.93;;
21087;SDS011;10702;51.516;9.944;2022-12-07T14:01:44;12.60;;;6.00;;
21087;SDS011;10702;51.516;9.944;2022-12-07T14:04:16;9.87;;;6.23;;
21087;SDS011;10702;51.516;9.944;2022-12-07T14:06:48;10.57;;;5.97;;
21087;SDS011;10702;51.516;9.944;2022-12-07T14:09:19;8.30;;;3.83;;
21087;SDS011;10702;51.516;9.944;2022-12-07T14:11:48;10.63;;;4.30;;
21087;SDS011;10702;51.516;9.944;2022-12-07T14:14:18;10.47;;;4.20;;
21087;SDS011;10702;51.516;9.944;2022-12-07T14:16:54;7.03;;;3.13;;
21087;SDS011;10702;51.516;9.944;2022-12-07T14:19:40;15.77;;;8.83;;
21087;SDS011;10702;51.516;9.944;2022-12-07T14:25:13;8.93;;;5.13;;
21087;SDS011;10702;51.516;9.944;2022-12-07T14:27:47;8.70;;;3.63;;
21087;SDS011;10702;51.516;9.944;2022-12-07T14:30:15;9.73;;;4.60;;
21087;SDS011;10702;51.516;9.944;2022-12-07T14:32:44;9.47;;;3.50;;
21087;SDS011;10702;51.516;9.944;2022-12-07T14:35:15;7.50;;;3.83;;
21087;SDS011;10702;51.516;9.944;2022-12-07T14:37:44;11.63;;;3.80;;
21087;SDS011;10702;51.516;9.944;2022-12-07T14:40:13;8.77;;;3.87;;
21087;SDS011;10702;51.516;9.944;2022-12-07T14:42:41;11.20;;;3.67;;
21087;SDS011;10702;51.516;9.944;2022-12-07T14:45:12;6.10;;;3.47;;
21087;SDS011;10702;51.516;9.944;2022-12-07T14:47:40;10.07;;;4.57;;
21087;SDS011;10702;51.516;9.944;2022-12-07T14:50:27;8.93;;;5.10;;
21087;SDS011;10702;51.516;9.944;2022-12-07T14:52:56;9.67;;;3.77;;
21087;SDS011;10702;51.516;9.944;2022-12-07T14:55:47;6.40;;;3.77;;
21087;SDS011;10702;51.516;9.944;2022-12-07T14:58:14;7.77;;;4.03;;
21087;SDS011;10702;51.516;9.944;2022-12-07T15:00:43;9.87;;;3.53;;
21087;SDS011;10702;51.516;9.944;2022-12-07T15:03:10;8.70;;;3.63;;
21087;SDS011;10702;51.516;9.944;2022-12-07T15:05:39;11.03;;;3.60;;
21087;SDS011;10702;51.516;9.944;2022-12-07T15:08:08;9.03;;;3.60;;
21087;SDS011;10702;51.516;9.944;2022-12-07T15:10:35;10.17;;;3.77;;
21087;SDS011;10702;51.516;9.944;2022-12-07T15:13:06;7.60;;;4.03;;
21087;SDS011;10702;51.516;9.944;2022-12-07T15:15:53;14.40;;;4.10;;